createdAt,value
2017-10-26T00:01:24.990Z,83.60
2017-10-26T00:03:52.598Z,83.70
2017-10-26T00:06:20.168Z,82.70
2017-10-26T00:08:47.772Z,83.20
2017-10-26T00:11:15.352Z,84.00
2017-10-26T00:13:42.942Z,84.10
2017-10-26T00:16:10.548Z,84.10
2017-10-26T00:18:38.107Z,83.40
2017-10-26T00:21:05.711Z,82.50
2017-10-26T00:23:33.282Z,83.30
2017-10-26T00:26:00.900Z,83.60
2017-10-26T00:28:28.488Z,83.50
2017-10-26T00:30:56.059Z,83.70
2017-10-26T00:33:23.662Z,83.80
2017-10-26T00:35:51.998Z,83.60
2017-10-26T00:38:19.598Z,83.60
2017-10-26T00:40:47.959Z,83.40
2017-10-26T00:43:15.586Z,83.40
2017-10-26T00:45:43.151Z,83.00
2017-10-26T00:48:10.705Z,83.00
2017-10-26T00:50:38.347Z,83.90
2017-10-26T00:53:05.911Z,84.20
2017-10-26T00:55:33.479Z,83.80
2017-10-26T00:58:01.084Z,83.40
2017-10-26T01:00:28.695Z,83.30
2017-10-26T01:02:56.256Z,83.40
2017-10-26T01:05:23.885Z,83.10
2017-10-26T01:07:52.222Z,84.00
2017-10-26T01:10:19.855Z,84.00
2017-10-26T01:12:47.455Z,83.90
2017-10-26T01:15:15.039Z,83.90
2017-10-26T01:17:43.431Z,83.00
2017-10-26T01:20:11.771Z,83.20
2017-10-26T01:22:39.396Z,83.10
2017-10-26T01:25:06.988Z,82.40
2017-10-26T01:27:34.612Z,82.20
2017-10-26T01:30:02.202Z,82.80
2017-10-26T01:32:29.759Z,83.40
2017-10-26T01:34:58.315Z,83.20
2017-10-26T01:37:25.903Z,83.40
2017-10-26T01:39:53.530Z,83.50
2017-10-26T01:42:21.882Z,82.90
2017-10-26T01:44:49.443Z,82.80
2017-10-26T01:47:17.047Z,82.80
2017-10-26T01:49:44.622Z,82.20
2017-10-26T01:52:12.202Z,82.30
2017-10-26T01:54:39.842Z,82.50
2017-10-26T01:57:07.413Z,83.20
2017-10-26T01:59:34.986Z,82.80
2017-10-26T02:02:02.630Z,83.20
2017-10-26T02:04:30.194Z,83.20
2017-10-26T02:06:57.832Z,83.00
2017-10-26T02:09:26.189Z,82.40
2017-10-26T02:11:54.523Z,82.10
2017-10-26T02:14:22.144Z,82.10
2017-10-26T02:16:49.712Z,82.50
2017-10-26T02:19:17.341Z,82.30
2017-10-26T02:21:45.692Z,82.50
2017-10-26T02:24:13.306Z,82.50
2017-10-26T02:26:40.923Z,82.60
2017-10-26T02:29:20.526Z,82.30
2017-10-26T02:31:48.162Z,82.50
2017-10-26T02:34:16.485Z,83.20
2017-10-26T02:36:44.077Z,83.20
2017-10-26T02:39:11.683Z,82.60
2017-10-26T02:41:39.285Z,82.10
2017-10-26T02:44:06.922Z,81.80
2017-10-26T02:46:34.486Z,82.10
2017-10-26T02:49:02.104Z,82.40
2017-10-26T02:51:29.725Z,82.00
2017-10-26T02:53:57.344Z,82.00
2017-10-26T02:56:24.914Z,82.40
2017-10-26T02:58:52.578Z,82.80
2017-10-26T03:01:20.177Z,82.00
2017-10-26T03:03:47.791Z,81.60
2017-10-26T03:06:15.361Z,81.60
2017-10-26T03:08:43.002Z,81.40
2017-10-26T03:11:10.587Z,81.20
2017-10-26T03:13:38.195Z,81.20
2017-10-26T03:16:05.770Z,81.30
2017-10-26T03:18:34.142Z,81.20
2017-10-26T03:21:01.722Z,81.20
2017-10-26T03:23:30.064Z,81.00
2017-10-26T03:25:57.667Z,81.00
2017-10-26T03:28:25.231Z,82.30
2017-10-26T03:30:52.835Z,82.20
2017-10-26T03:33:20.406Z,82.90
2017-10-26T03:35:47.986Z,82.40
2017-10-26T03:38:16.375Z,83.10
2017-10-26T03:40:44.774Z,83.80
2017-10-26T03:43:12.357Z,83.10
2017-10-26T03:45:39.965Z,83.00
2017-10-26T03:48:07.575Z,83.30
2017-10-26T03:50:35.224Z,83.20
2017-10-26T03:53:02.800Z,83.30
2017-10-26T03:55:30.433Z,83.10
2017-10-26T03:57:58.024Z,82.90
2017-10-26T04:00:25.618Z,83.00
2017-10-26T04:02:53.230Z,82.70
2017-10-26T04:05:20.798Z,82.70
2017-10-26T04:07:48.423Z,82.70
2017-10-26T04:10:16.830Z,82.70
2017-10-26T04:12:44.416Z,82.60
2017-10-26T04:15:11.995Z,82.50
2017-10-26T04:17:39.615Z,82.40
2017-10-26T04:20:07.177Z,81.80
2017-10-26T04:22:34.761Z,82.30
2017-10-26T04:25:02.352Z,82.70
2017-10-26T04:27:30.846Z,82.90
2017-10-26T04:29:58.423Z,82.60
2017-10-26T04:32:26.763Z,82.30
2017-10-26T04:34:54.357Z,82.30
2017-10-26T04:37:22.698Z,83.20
2017-10-26T04:39:50.310Z,83.20
2017-10-26T04:42:17.898Z,82.50
2017-10-26T04:44:45.501Z,82.20
2017-10-26T04:47:13.122Z,82.70
2017-10-26T04:49:40.718Z,82.60
2017-10-26T04:52:08.334Z,82.60
2017-10-26T04:54:35.910Z,82.20
2017-10-26T04:57:03.469Z,82.80
2017-10-26T04:59:31.068Z,82.90
2017-10-26T05:01:58.682Z,83.10
2017-10-26T05:04:26.314Z,82.80
2017-10-26T05:06:54.694Z,84.30
2017-10-26T05:09:22.287Z,84.30
2017-10-26T05:11:49.858Z,84.60
2017-10-26T05:14:17.485Z,84.70
2017-10-26T05:16:45.050Z,84.90
2017-10-26T05:19:12.650Z,85.10
2017-10-26T05:21:40.270Z,84.90
2017-10-26T05:24:07.846Z,84.90
2017-10-26T05:26:35.462Z,84.90
2017-10-26T05:29:03.797Z,85.40
2017-10-26T05:31:31.419Z,85.40
2017-10-26T05:33:59.754Z,85.00
2017-10-26T05:36:27.338Z,85.00
2017-10-26T05:38:54.952Z,84.70
2017-10-26T05:41:22.525Z,84.80
2017-10-26T05:43:50.141Z,84.60
2017-10-26T05:46:24.793Z,85.00
2017-10-26T05:48:52.863Z,85.00
2017-10-26T05:51:20.493Z,84.80
2017-10-26T05:53:48.836Z,84.90
2017-10-26T05:56:17.773Z,84.90
2017-10-26T05:58:45.386Z,84.70
2017-10-26T06:01:12.971Z,85.10
2017-10-26T06:03:40.592Z,84.80
2017-10-26T06:06:08.157Z,84.60
2017-10-26T06:08:35.727Z,84.60
2017-10-26T06:11:03.356Z,84.60
2017-10-26T06:13:31.752Z,84.70
2017-10-26T06:15:59.333Z,84.80
2017-10-26T06:18:26.946Z,85.00
2017-10-26T06:20:55.321Z,84.80
2017-10-26T06:23:23.671Z,85.00
2017-10-26T06:25:51.242Z,85.00
2017-10-26T06:28:18.851Z,84.80
2017-10-26T06:30:47.217Z,85.00
2017-10-26T06:33:15.781Z,85.00
2017-10-26T06:35:44.117Z,85.00
2017-10-26T06:38:11.715Z,84.90
2017-10-26T06:40:40.053Z,84.10
2017-10-26T06:43:07.652Z,84.10
2017-10-26T06:45:35.244Z,84.20
2017-10-26T06:48:02.856Z,84.00
2017-10-26T06:50:30.465Z,83.90
2017-10-26T06:52:59.207Z,85.00
2017-10-26T06:55:27.571Z,84.70
2017-10-26T06:57:55.167Z,84.40
2017-10-26T07:00:23.534Z,84.50
2017-10-26T07:02:51.112Z,84.40
2017-10-26T07:05:19.524Z,84.10
2017-10-26T07:07:47.098Z,84.10
2017-10-26T07:10:14.678Z,84.30
2017-10-26T07:12:42.601Z,84.60
2017-10-26T07:15:10.243Z,84.50
2017-10-26T07:17:38.795Z,84.10
2017-10-26T07:20:06.752Z,84.70
2017-10-26T07:22:35.121Z,84.20
2017-10-26T07:25:03.512Z,84.10
2017-10-26T07:27:31.077Z,84.10
2017-10-26T07:29:58.686Z,84.00
2017-10-26T07:32:27.339Z,83.70
2017-10-26T07:34:54.905Z,83.70
2017-10-26T07:37:22.519Z,83.80
2017-10-26T07:39:50.150Z,83.80
2017-10-26T07:42:18.530Z,84.00
2017-10-26T07:44:46.907Z,83.90
2017-10-26T07:47:15.331Z,84.60
2017-10-26T07:49:42.920Z,84.50
2017-10-26T07:52:10.549Z,84.80
2017-10-26T07:54:38.136Z,85.20
2017-10-26T07:57:05.748Z,85.00
2017-10-26T07:59:33.362Z,84.90
2017-10-26T08:02:00.985Z,84.30
2017-10-26T08:04:28.579Z,84.50
2017-10-26T08:06:56.146Z,84.40
2017-10-26T08:09:23.780Z,86.10
2017-10-26T08:11:51.350Z,83.10
2017-10-26T08:14:18.927Z,83.20
2017-10-26T08:16:46.622Z,83.10
2017-10-26T08:19:14.979Z,84.10
2017-10-26T08:21:42.574Z,84.10
2017-10-26T08:24:10.367Z,83.80
2017-10-26T08:26:38.804Z,83.50
2017-10-26T08:29:07.181Z,83.10
2017-10-26T08:31:40.038Z,83.00
2017-10-26T08:34:14.344Z,82.20
2017-10-26T08:36:48.691Z,82.20
2017-10-26T08:39:21.745Z,82.80
2017-10-26T08:41:56.880Z,82.80
2017-10-26T08:44:30.762Z,82.00
2017-10-26T08:47:04.789Z,81.60
2017-10-26T08:49:37.175Z,81.40
2017-10-26T08:52:10.199Z,81.40
2017-10-26T08:54:37.848Z,81.40
2017-10-26T08:57:07.358Z,81.70
2017-10-26T08:59:35.474Z,80.20
2017-10-26T09:02:03.095Z,80.50
2017-10-26T09:04:31.522Z,80.80
2017-10-26T09:06:59.376Z,80.70
2017-10-26T09:09:26.998Z,80.90
2017-10-26T09:11:54.681Z,81.40
2017-10-26T09:14:23.063Z,80.60
2017-10-26T09:16:50.668Z,80.40
2017-10-26T09:19:18.303Z,80.40
2017-10-26T09:21:45.910Z,80.10
2017-10-26T09:24:13.542Z,80.50
2017-10-26T09:26:41.527Z,80.60
2017-10-26T09:29:09.180Z,79.40
2017-10-26T09:31:36.748Z,80.80
2017-10-26T09:34:06.094Z,81.00
2017-10-26T09:36:33.699Z,80.80
2017-10-26T09:39:01.326Z,80.30
2017-10-26T09:41:28.936Z,80.30
2017-10-26T09:43:56.543Z,80.70
2017-10-26T09:46:24.149Z,80.40
2017-10-26T09:48:52.478Z,79.80
2017-10-26T09:51:24.665Z,80.30
2017-10-26T09:53:52.341Z,80.30
2017-10-26T09:56:22.719Z,79.80
2017-10-26T09:58:50.309Z,80.20
2017-10-26T10:01:18.688Z,79.90
2017-10-26T10:03:47.065Z,79.90
2017-10-26T10:06:15.430Z,80.20
2017-10-26T10:08:43.050Z,80.10
2017-10-26T10:11:11.434Z,79.80
2017-10-26T10:13:52.650Z,79.80
2017-10-26T10:16:20.470Z,80.20
2017-10-26T10:18:48.128Z,81.10
2017-10-26T10:21:15.742Z,80.40
2017-10-26T10:23:43.361Z,80.30
2017-10-26T10:26:11.000Z,79.20
2017-10-26T10:28:38.603Z,79.50
2017-10-26T10:31:06.198Z,79.90
2017-10-26T10:33:33.853Z,78.80
2017-10-26T10:36:01.443Z,78.70
2017-10-26T10:38:30.543Z,79.20
2017-10-26T10:40:59.293Z,79.20
2017-10-26T10:43:28.929Z,79.80
2017-10-26T10:45:57.917Z,79.80
2017-10-26T10:48:27.743Z,79.20
2017-10-26T10:50:55.938Z,79.00
2017-10-26T10:53:24.132Z,79.10
2017-10-26T10:55:53.049Z,79.10
2017-10-26T10:58:20.633Z,78.80
2017-10-26T11:00:48.413Z,76.50
2017-10-26T11:03:16.042Z,75.70
2017-10-26T11:05:43.654Z,75.70
2017-10-26T11:08:11.316Z,76.10
2017-10-26T11:10:39.853Z,75.60
2017-10-26T11:13:18.151Z,75.90
2017-10-26T11:15:47.400Z,75.80
2017-10-26T11:18:15.014Z,75.60
2017-10-26T11:20:42.614Z,74.70
2017-10-26T11:23:10.238Z,74.50
2017-10-26T11:25:37.870Z,74.70
2017-10-26T11:28:05.454Z,74.50
2017-10-26T11:30:34.432Z,74.50
2017-10-26T11:33:02.043Z,75.00
2017-10-26T11:35:30.391Z,75.60
2017-10-26T11:37:58.069Z,75.60
2017-10-26T11:40:25.742Z,75.40
2017-10-26T11:43:02.836Z,75.60
2017-10-26T11:45:40.430Z,75.60
2017-10-26T11:48:26.148Z,76.20
2017-10-26T11:51:01.485Z,76.20
2017-10-26T11:53:29.413Z,77.10
2017-10-26T11:56:02.880Z,76.80
2017-10-26T11:58:33.233Z,77.20
2017-10-26T12:01:26.048Z,76.50
2017-10-26T12:03:56.767Z,76.80
2017-10-26T12:06:24.682Z,77.00
2017-10-26T12:08:54.594Z,76.70
2017-10-26T12:11:23.844Z,76.80
2017-10-26T12:13:55.762Z,76.60
2017-10-26T12:16:25.982Z,77.00
2017-10-26T12:18:54.463Z,77.20
2017-10-26T12:21:22.092Z,77.10
2017-10-26T12:23:49.756Z,77.10
2017-10-26T12:26:24.972Z,77.00
2017-10-26T12:28:54.249Z,77.30
2017-10-26T12:31:22.713Z,77.50
2017-10-26T12:33:51.071Z,78.00
2017-10-26T12:36:18.678Z,78.00
2017-10-26T12:38:47.078Z,78.10
2017-10-26T12:41:14.683Z,78.00
2017-10-26T12:43:42.400Z,77.80
2017-10-26T12:46:11.411Z,77.70
2017-10-26T12:48:43.137Z,77.70
2017-10-26T12:51:15.327Z,78.00
2017-10-26T12:53:43.393Z,78.40
2017-10-26T12:56:11.026Z,78.20
2017-10-26T12:58:38.846Z,78.40
2017-10-26T13:01:12.271Z,78.20
2017-10-26T13:03:49.417Z,79.00
2017-10-26T13:06:20.075Z,79.10
2017-10-26T13:08:47.712Z,79.50
2017-10-26T13:11:15.311Z,79.40
2017-10-26T13:13:43.024Z,79.00
2017-10-26T13:16:10.656Z,79.00
2017-10-26T13:18:39.065Z,80.00
2017-10-26T13:21:06.696Z,79.90
2017-10-26T13:23:34.282Z,79.30
2017-10-26T13:26:02.042Z,79.20
2017-10-26T13:28:29.749Z,79.50
2017-10-26T13:30:57.327Z,79.50
2017-10-26T13:33:29.572Z,79.70
2017-10-26T13:36:04.669Z,79.50
2017-10-26T13:38:35.100Z,79.70
2017-10-26T13:41:02.771Z,79.80
2017-10-26T13:43:30.358Z,79.60
2017-10-26T13:45:58.069Z,79.60
2017-10-26T13:48:27.925Z,79.80
2017-10-26T13:50:58.795Z,79.00
2017-10-26T13:53:31.515Z,79.00
2017-10-26T13:56:00.471Z,78.40
2017-10-26T13:58:28.153Z,78.30
2017-10-26T14:00:57.071Z,78.10
2017-10-26T14:03:33.775Z,78.10
2017-10-26T14:06:24.632Z,78.20
2017-10-26T14:08:56.356Z,78.30
2017-10-26T14:11:24.294Z,78.30
2017-10-26T14:13:51.951Z,78.20
2017-10-26T14:16:19.638Z,78.50
2017-10-26T14:18:47.225Z,78.50
2017-10-26T14:21:14.814Z,79.00
2017-10-26T14:23:43.201Z,78.80
2017-10-26T14:26:11.611Z,78.80
2017-10-26T14:28:39.190Z,78.70
2017-10-26T14:31:06.888Z,79.60
2017-10-26T14:33:35.258Z,79.60
2017-10-26T14:36:04.758Z,79.00
2017-10-26T14:38:38.325Z,79.20
2017-10-26T14:41:07.843Z,78.80
2017-10-26T14:43:35.502Z,78.60
2017-10-26T14:46:03.109Z,79.20
2017-10-26T14:48:31.531Z,79.00
2017-10-26T14:50:59.137Z,79.00
2017-10-26T14:53:26.731Z,79.00
2017-10-26T14:55:54.355Z,79.40
2017-10-26T14:58:21.954Z,79.10
2017-10-26T15:00:49.562Z,79.40
2017-10-26T15:03:17.247Z,79.30
2017-10-26T15:05:44.834Z,79.50
2017-10-26T15:08:13.267Z,79.30
2017-10-26T15:10:42.886Z,79.30
2017-10-26T15:13:10.473Z,79.20
2017-10-26T15:15:42.310Z,77.40
2017-10-26T15:18:10.673Z,79.60
2017-10-26T15:20:42.112Z,79.50
2017-10-26T15:23:09.808Z,79.60
2017-10-26T15:25:37.427Z,79.40
2017-10-26T15:28:05.061Z,79.50
2017-10-26T15:30:34.980Z,80.40
2017-10-26T15:33:03.362Z,80.10
2017-10-26T15:35:30.998Z,80.10
2017-10-26T15:37:59.382Z,79.70
2017-10-26T15:40:27.810Z,79.80
2017-10-26T15:42:55.430Z,79.40
2017-10-26T15:45:23.786Z,79.80
2017-10-26T15:47:51.419Z,79.80
2017-10-26T15:50:19.026Z,80.20
2017-10-26T15:52:46.625Z,80.60
2017-10-26T15:55:14.246Z,80.90
2017-10-26T15:57:41.839Z,80.30
2017-10-26T16:00:09.475Z,80.30
2017-10-26T16:02:37.117Z,80.50
2017-10-26T16:05:04.770Z,80.60
2017-10-26T16:07:33.016Z,81.50
2017-10-26T16:10:02.156Z,80.70
2017-10-26T16:12:33.073Z,81.20
2017-10-26T16:15:03.607Z,81.10
2017-10-26T16:17:41.017Z,81.10
2017-10-26T16:20:14.614Z,81.20
2017-10-26T16:22:45.225Z,81.50
2017-10-26T16:25:14.532Z,81.80
2017-10-26T16:27:44.240Z,82.40
2017-10-26T16:30:13.909Z,82.60
2017-10-26T16:32:43.818Z,82.40
2017-10-26T16:35:13.715Z,82.60
2017-10-26T16:37:45.355Z,83.10
2017-10-26T16:40:15.914Z,83.00
2017-10-26T16:42:46.489Z,83.30
2017-10-26T16:45:17.536Z,83.30
2017-10-26T16:47:46.966Z,83.30
2017-10-26T16:50:16.706Z,83.70
2017-10-26T16:52:47.377Z,84.40
2017-10-26T16:55:18.353Z,84.40
2017-10-26T16:57:56.773Z,84.60
2017-10-26T17:00:27.529Z,84.90
2017-10-26T17:02:57.624Z,85.40
2017-10-26T17:05:27.172Z,85.40
2017-10-26T17:07:57.858Z,85.40
2017-10-26T17:10:28.505Z,85.40
2017-10-26T17:12:59.333Z,85.50
2017-10-26T17:15:29.138Z,85.60
2017-10-26T17:18:00.346Z,85.20
2017-10-26T17:20:31.950Z,85.10
2017-10-26T17:23:02.794Z,85.40
2017-10-26T17:25:33.356Z,87.00
2017-10-26T17:28:04.737Z,86.20
2017-10-26T17:30:37.183Z,86.20
2017-10-26T17:33:07.615Z,86.50
2017-10-26T17:35:37.586Z,86.00
2017-10-26T17:38:10.702Z,86.30
2017-10-26T17:40:41.609Z,86.40
2017-10-26T17:43:19.758Z,86.70
2017-10-26T17:45:50.422Z,86.70
2017-10-26T17:48:19.910Z,87.00
2017-10-26T17:50:49.571Z,86.80
2017-10-26T17:53:20.465Z,86.80
2017-10-26T17:55:51.841Z,86.50
2017-10-26T17:58:29.511Z,86.70
2017-10-26T18:00:59.336Z,86.70
2017-10-26T18:03:28.950Z,86.60
2017-10-26T18:06:02.949Z,86.50
2017-10-26T18:08:33.773Z,85.60
2017-10-26T18:11:04.762Z,86.00
2017-10-26T18:13:35.584Z,86.10
2017-10-26T18:16:06.008Z,86.20
2017-10-26T18:18:36.666Z,85.90
2017-10-26T18:21:07.175Z,85.70
2017-10-26T18:23:36.956Z,85.60
2017-10-26T18:26:07.521Z,86.20
2017-10-26T18:28:37.139Z,86.00
2017-10-26T18:31:07.118Z,85.80
2017-10-26T18:33:38.064Z,86.20
2017-10-26T18:36:07.885Z,85.90
2017-10-26T18:38:36.523Z,86.20
2017-10-26T18:41:07.002Z,86.00
2017-10-26T18:43:37.656Z,86.00
2017-10-26T18:46:08.997Z,85.70
2017-10-26T18:48:39.817Z,85.50
2017-10-26T18:51:10.725Z,85.40
2017-10-26T18:53:41.461Z,85.50
2017-10-26T18:56:11.896Z,85.40
2017-10-26T18:58:41.782Z,85.80
2017-10-26T19:01:11.488Z,85.60
2017-10-26T19:03:42.095Z,85.50
2017-10-26T19:06:15.699Z,86.10
2017-10-26T19:08:45.625Z,85.80
2017-10-26T19:11:16.210Z,85.90
2017-10-26T19:13:47.863Z,85.90
2017-10-26T19:16:17.372Z,86.60
2017-10-26T19:18:47.202Z,86.80
2017-10-26T19:21:16.993Z,86.60
2017-10-26T19:23:46.517Z,86.30
2017-10-26T19:26:16.186Z,86.10
2017-10-26T19:28:46.782Z,85.60
2017-10-26T19:31:16.469Z,85.50
2017-10-26T19:33:46.285Z,86.10
2017-10-26T19:36:16.086Z,86.10
2017-10-26T19:38:46.861Z,85.80
2017-10-26T19:41:17.251Z,86.00
2017-10-26T19:43:46.944Z,85.90
2017-10-26T19:46:16.781Z,86.00
2017-10-26T19:48:47.607Z,86.20
2017-10-26T19:51:18.256Z,85.80
2017-10-26T19:53:48.736Z,85.90
2017-10-26T19:56:19.282Z,86.00
2017-10-26T19:58:49.981Z,85.90
2017-10-26T20:01:20.426Z,86.10
2017-10-26T20:03:50.949Z,86.20
2017-10-26T20:06:21.192Z,86.00
2017-10-26T20:08:51.124Z,86.00
2017-10-26T20:11:20.686Z,85.90
2017-10-26T20:13:51.462Z,85.80
2017-10-26T20:16:22.514Z,86.00
2017-10-26T20:18:52.249Z,86.20
2017-10-26T20:21:22.008Z,86.10
2017-10-26T20:23:52.456Z,86.10
2017-10-26T20:26:22.192Z,86.10
2017-10-26T20:28:51.515Z,86.20
2017-10-26T20:31:22.127Z,86.20
2017-10-26T20:33:51.142Z,86.20
2017-10-26T20:36:20.685Z,86.20
2017-10-26T20:38:50.434Z,86.30
2017-10-26T20:41:20.094Z,86.10
2017-10-26T20:43:49.421Z,86.80
2017-10-26T20:46:19.212Z,85.90
2017-10-26T20:48:49.249Z,86.30
2017-10-26T20:51:25.244Z,86.30
2017-10-26T20:54:00.495Z,86.10
2017-10-26T20:56:35.353Z,86.50
2017-10-26T20:59:11.230Z,87.00
2017-10-26T21:01:47.197Z,86.40
2017-10-26T21:04:22.695Z,85.90
2017-10-26T21:06:54.504Z,86.30
2017-10-26T21:09:26.960Z,85.70
2017-10-26T21:12:02.292Z,85.90
2017-10-26T21:14:32.714Z,85.80
2017-10-26T21:17:03.354Z,85.50
2017-10-26T21:19:33.683Z,85.10
2017-10-26T21:22:04.311Z,85.50
2017-10-26T21:24:34.742Z,85.60
2017-10-26T21:27:05.061Z,85.60
2017-10-26T21:29:36.190Z,85.50
2017-10-26T21:32:06.172Z,85.50
2017-10-26T21:34:34.009Z,85.50
2017-10-26T21:37:02.074Z,85.70
2017-10-26T21:39:30.186Z,85.80
2017-10-26T21:41:58.311Z,85.80
2017-10-26T21:44:27.049Z,86.30
2017-10-26T21:46:55.117Z,86.20
2017-10-26T21:49:23.021Z,86.40
2017-10-26T21:51:50.838Z,86.30
2017-10-26T21:54:19.098Z,86.00
2017-10-26T21:56:46.970Z,86.10
2017-10-26T21:59:14.886Z,85.90
2017-10-26T22:01:42.918Z,86.00
2017-10-26T22:04:12.159Z,85.70
2017-10-26T22:06:41.501Z,85.80
2017-10-26T22:09:11.069Z,85.80
2017-10-26T22:11:40.395Z,85.90
2017-10-26T22:14:09.888Z,86.00
2017-10-26T22:16:38.433Z,85.80
2017-10-26T22:19:07.796Z,85.60
2017-10-26T22:21:38.129Z,85.50
2017-10-26T22:24:08.205Z,85.50
2017-10-26T22:26:37.838Z,85.70
2017-10-26T22:29:08.310Z,86.00
2017-10-26T22:31:37.777Z,85.90
2017-10-26T22:34:08.083Z,86.30
2017-10-26T22:36:37.104Z,86.30
2017-10-26T22:39:07.636Z,86.40
2017-10-26T22:41:37.271Z,86.80
2017-10-26T22:44:06.772Z,86.20
2017-10-26T22:46:36.322Z,85.90
2017-10-26T22:49:05.727Z,85.80
2017-10-26T22:51:35.388Z,86.10
2017-10-26T22:54:04.809Z,86.20
2017-10-26T22:56:34.289Z,86.60
2017-10-26T22:59:04.082Z,86.60
2017-10-26T23:01:33.686Z,86.30
2017-10-26T23:04:03.491Z,86.30
2017-10-26T23:06:33.744Z,86.10
2017-10-26T23:09:05.002Z,86.00
2017-10-26T23:11:34.706Z,85.90
2017-10-26T23:14:05.135Z,86.30
2017-10-26T23:16:34.235Z,86.20
2017-10-26T23:19:03.899Z,86.10
2017-10-26T23:21:33.192Z,86.10
2017-10-26T23:24:02.694Z,86.10
2017-10-26T23:26:32.277Z,86.30
2017-10-26T23:29:01.756Z,86.60
2017-10-26T23:31:31.402Z,86.20
2017-10-26T23:34:01.116Z,86.30
2017-10-26T23:36:30.657Z,86.30
2017-10-26T23:39:00.992Z,86.30
2017-10-26T23:41:31.512Z,86.20
2017-10-26T23:44:01.744Z,86.20
2017-10-26T23:46:32.171Z,86.40
2017-10-26T23:49:02.481Z,86.60
2017-10-26T23:51:32.744Z,86.60
2017-10-26T23:54:02.513Z,86.50
2017-10-26T23:56:32.967Z,86.70
2017-10-26T23:59:02.460Z,86.70
